Olho d'Agua Grande, Brazil
Current Conditions -  °F | °C
As of 12:00 PM on Friday 28 Nov 2014 (Local Time) from SBAR Reporting Station
Few Clouds Few Clouds  
Wind Chill: 82°   Ceiling: Unl
Heat Index: 85°   Visibility: 6mi
Dew Point: 68°   Wind: 12mph
Humidity: 62%   Direction: 100°E
Pressure: 29.94"   Gusts: NA
Location:  10.06°S, 36.82°W
Report Text: SBAR 281500Z 10010KT 9999 FEW017 28/20 Q1014
Loading
Personal Weather Stations






























Interactive Weather Map New forecast layout! Learn more

10-Day Weather Forecast

Advertisements
Track Severe Weather on mobile